Time;durP1;ratioP1;P1;durP2;ratioP2;P2;SDS_P1;SDS_P2;PMS_P1;PMS_P2;Temp;Humidity;BMP_temperature;BMP_pressure;BME280_temperature;BME280_humidity;BME280_pressure;Samples;Min_cycle;Max_cycle;Signal;HPM_P1;HPM_P2
2021/05/11 00:02:13;;;;;;;3.87;3.53;;;;;;;;;;4954918;29;20415;-76
2021/05/11 00:04:39;;;;;;;4.37;3.97;;;;;;;;;;4954611;29;20578;-75
2021/05/11 00:07:05;;;;;;;4.50;4.10;;;;;;;;;;4954599;29;20463;-75
2021/05/11 00:09:31;;;;;;;3.83;3.50;;;;;;;;;;4954657;29;20471;-76
2021/05/11 00:15:01;;;;;;;4.87;4.37;;;;;;;;;;4954628;29;20410;-76
2021/05/11 00:17:27;;;;;;;4.70;4.30;;;;;;;;;;4954916;29;20411;-75
2021/05/11 00:19:53;;;;;;;5.50;4.20;;;;;;;;;;4954884;29;20424;-77
2021/05/11 00:22:19;;;;;;;5.37;4.87;;;;;;;;;;4954248;29;20419;-75
2021/05/11 00:24:45;;;;;;;5.10;4.40;;;;;;;;;;4954259;29;20415;-75
2021/05/11 00:30:14;;;;;;;6.53;5.10;;;;;;;;;;4954450;29;20589;-75
2021/05/11 00:32:40;;;;;;;6.63;6.00;;;;;;;;;;4954082;29;20494;-75
2021/05/11 00:35:06;;;;;;;5.60;5.10;;;;;;;;;;4954157;29;20435;-75
2021/05/11 00:37:32;;;;;;;6.50;5.90;;;;;;;;;;4954082;29;20474;-75
2021/05/11 00:39:58;;;;;;;6.03;5.10;;;;;;;;;;4954075;28;20522;-76
2021/05/11 00:45:28;;;;;;;6.43;5.83;;;;;;;;;;4953710;29;20406;-75
2021/05/11 00:47:54;;;;;;;6.43;5.83;;;;;;;;;;4954206;29;20416;-75
2021/05/11 00:50:20;;;;;;;6.33;5.33;;;;;;;;;;4954035;29;20485;-75
2021/05/11 00:52:46;;;;;;;6.13;5.53;;;;;;;;;;4954391;29;20407;-75
2021/05/11 00:55:12;;;;;;;7.27;6.47;;;;;;;;;;4954207;29;20760;-74
2021/05/11 01:00:42;;;;;;;6.87;5.70;;;;;;;;;;4954008;29;20434;-75
2021/05/11 01:03:08;;;;;;;6.70;5.53;;;;;;;;;;4953886;29;20449;-74
2021/05/11 01:05:34;;;;;;;6.40;5.70;;;;;;;;;;4953747;29;20420;-75
2021/05/11 01:08:00;;;;;;;6.40;5.63;;;;;;;;;;4957213;28;20835;-73
2021/05/11 01:10:26;;;;;;;6.83;5.90;;;;;;;;;;4954212;29;20478;-75
2021/05/11 01:15:55;;;;;;;6.83;5.70;;;;;;;;;;4953910;29;20770;-75
2021/05/11 01:18:31;;;;;;;6.40;5.70;;;;;;;;;;4953806;29;20415;-79
2021/05/11 01:21:03;;;;;;;6.13;5.63;;;;;;;;;;4953770;29;20415;-75
2021/05/11 01:26:24;;;;;;;6.67;5.87;;;;;;;;;;4953676;29;20767;-76
2021/05/11 01:48:11;;;;;;;6.20;5.50;;;;;;;;;;4953610;29;20420;-75
2021/05/11 01:51:26;;;;;;;5.27;4.77;;;;;;;;;;4953693;28;20467;-75
2021/05/11 01:53:48;;;;;;;7.10;5.63;;;;;;;;;;4953114;29;20438;-75
2021/05/11 02:23:29;;;;;;;6.30;5.00;;;;;;;;;;4976145;28;20422;-74
2021/05/11 02:25:55;;;;;;;5.77;5.00;;;;;;;;;;4976047;28;20414;-74
2021/05/11 02:31:24;;;;;;;5.20;4.70;;;;;;;;;;4976017;28;20825;-74
2021/05/11 02:33:50;;;;;;;5.33;4.17;;;;;;;;;;4975917;28;20418;-74
2021/05/11 02:36:16;;;;;;;7.50;5.90;;;;;;;;;;4975910;28;20414;-74
2021/05/11 02:38:42;;;;;;;7.07;5.70;;;;;;;;;;4975682;28;20415;-74
2021/05/11 02:41:08;;;;;;;7.43;5.77;;;;;;;;;;4975839;28;20776;-74
2021/05/11 02:46:39;;;;;;;7.80;5.20;;;;;;;;;;4975200;28;20430;-74
2021/05/11 02:49:06;;;;;;;9.10;6.20;;;;;;;;;;4975663;28;20545;-73
2021/05/11 02:51:33;;;;;;;8.30;6.27;;;;;;;;;;4975866;28;20427;-74
2021/05/11 02:53:59;;;;;;;8.73;6.37;;;;;;;;;;4975689;28;20438;-74
2021/05/11 02:56:24;;;;;;;8.60;6.80;;;;;;;;;;4975289;28;20442;-75
2021/05/11 03:01:54;;;;;;;9.17;7.90;;;;;;;;;;4975091;28;20554;-75
2021/05/11 03:04:20;;;;;;;8.27;7.13;;;;;;;;;;4975153;28;20407;-73
2021/05/11 03:06:46;;;;;;;10.87;7.80;;;;;;;;;;4975156;28;20481;-74
2021/05/11 03:09:13;;;;;;;9.37;7.00;;;;;;;;;;4975504;28;20584;-74
2021/05/11 03:11:39;;;;;;;9.20;6.83;;;;;;;;;;4975628;28;20543;-74
2021/05/11 03:17:09;;;;;;;10.33;7.10;;;;;;;;;;4975187;28;20430;-75
2021/05/11 03:19:35;;;;;;;10.50;7.63;;;;;;;;;;4975207;28;20526;-75
2021/05/11 03:22:01;;;;;;;9.20;6.70;;;;;;;;;;4975388;28;20421;-74
2021/05/11 03:24:27;;;;;;;9.23;6.10;;;;;;;;;;4974680;28;20423;-74
2021/05/11 03:26:53;;;;;;;9.33;6.53;;;;;;;;;;4975141;28;20492;-75
2021/05/11 03:32:22;;;;;;;8.00;6.50;;;;;;;;;;4974934;28;20437;-75
2021/05/11 03:34:48;;;;;;;9.80;7.23;;;;;;;;;;4974795;28;20875;-76
2021/05/11 03:37:14;;;;;;;8.17;6.50;;;;;;;;;;4974724;28;20514;-75
2021/05/11 03:39:41;;;;;;;10.17;7.20;;;;;;;;;;4974616;28;20414;-74
2021/05/11 03:42:12;;;;;;;9.93;6.60;;;;;;;;;;4974788;28;20521;-75
2021/05/11 03:47:45;;;;;;;9.90;7.50;;;;;;;;;;4974506;28;20413;-74
2021/05/11 03:50:15;;;;;;;10.33;7.27;;;;;;;;;;4974557;28;20482;-75
2021/05/11 03:52:42;;;;;;;8.83;7.47;;;;;;;;;;4974271;28;20450;-76
2021/05/11 03:55:08;;;;;;;9.73;7.03;;;;;;;;;;4974292;28;20415;-74
2021/05/11 03:57:34;;;;;;;9.90;6.90;;;;;;;;;;4974288;28;20407;-74
2021/05/11 04:03:03;;;;;;;13.67;8.63;;;;;;;;;;4974169;28;20473;-74
2021/05/11 04:05:30;;;;;;;14.50;8.80;;;;;;;;;;4973743;28;20449;-73
2021/05/11 04:07:58;;;;;;;11.27;8.70;;;;;;;;;;4973958;28;20474;-75
2021/05/11 04:10:33;;;;;;;16.27;10.47;;;;;;;;;;4972813;28;20486;-75
2021/05/11 04:18:34;;;;;;;16.83;11.30;;;;;;;;;;4973736;28;20781;-74
2021/05/11 04:21:00;;;;;;;17.40;9.53;;;;;;;;;;4972069;28;20426;-75
2021/05/11 04:23:26;;;;;;;13.30;9.30;;;;;;;;;;4971912;28;20910;-75
2021/05/11 04:25:52;;;;;;;12.63;8.50;;;;;;;;;;4973536;28;20839;-75
2021/05/11 04:28:18;;;;;;;14.17;9.40;;;;;;;;;;4973249;28;20433;-75
2021/05/11 04:33:48;;;;;;;10.90;8.50;;;;;;;;;;4973281;28;20522;-75
2021/05/11 04:36:15;;;;;;;11.27;8.80;;;;;;;;;;4973417;28;20419;-76
2021/05/11 04:38:41;;;;;;;13.07;9.50;;;;;;;;;;4973161;28;20430;-75
2021/05/11 04:41:07;;;;;;;11.00;8.80;;;;;;;;;;4973284;28;20461;-74
2021/05/11 04:43:35;;;;;;;14.40;9.57;;;;;;;;;;4971529;28;20438;-73
2021/05/11 04:46:10;;;;;;;13.00;8.93;;;;;;;;;;4972640;28;20894;-73
2021/05/11 04:48:36;;;;;;;13.53;9.13;;;;;;;;;;4973092;28;20426;-74
2021/05/11 04:51:02;;;;;;;16.10;10.90;;;;;;;;;;4972908;28;20837;-74
2021/05/11 04:53:28;;;;;;;11.03;8.90;;;;;;;;;;4972850;28;20415;-75
2021/05/11 04:55:54;;;;;;;15.53;10.30;;;;;;;;;;4972960;28;20431;-74
2021/05/11 04:58:20;;;;;;;15.60;10.40;;;;;;;;;;4973073;28;20448;-73
2021/05/11 05:03:52;;;;;;;12.90;9.67;;;;;;;;;;4972628;28;20909;-74
2021/05/11 05:06:18;;;;;;;9.97;7.83;;;;;;;;;;4972774;28;20466;-74
2021/05/11 05:08:44;;;;;;;11.07;8.40;;;;;;;;;;4972069;28;20486;-74
2021/05/11 05:11:10;;;;;;;11.00;9.30;;;;;;;;;;4972583;28;20985;-74
2021/05/11 05:13:36;;;;;;;12.10;9.23;;;;;;;;;;4972517;28;20467;-74
2021/05/11 05:19:06;;;;;;;12.27;8.63;;;;;;;;;;4972520;28;20425;-74
2021/05/11 05:21:32;;;;;;;14.70;9.03;;;;;;;;;;4972437;28;20410;-74
2021/05/11 05:24:03;;;;;;;11.60;8.80;;;;;;;;;;4972292;28;20415;-74
2021/05/11 05:26:30;;;;;;;14.83;9.13;;;;;;;;;;4972479;28;20431;-74
2021/05/11 05:28:58;;;;;;;9.43;7.50;;;;;;;;;;4970876;28;20474;-75
2021/05/11 05:31:24;;;;;;;15.17;9.60;;;;;;;;;;4972623;28;20406;-75
2021/05/11 05:33:50;;;;;;;13.40;9.43;;;;;;;;;;4972368;28;20433;-74
2021/05/11 05:36:16;;;;;;;13.00;9.23;;;;;;;;;;4972603;28;20410;-74
2021/05/11 05:38:42;;;;;;;12.23;9.17;;;;;;;;;;4972053;28;20423;-75
2021/05/11 05:41:11;;;;;;;12.80;9.60;;;;;;;;;;4972702;28;20879;-74
2021/05/11 05:43:37;;;;;;;11.87;8.33;;;;;;;;;;4972515;28;20419;-75
2021/05/11 05:49:09;;;;;;;11.93;9.10;;;;;;;;;;4972696;28;20561;-74
2021/05/11 05:51:34;;;;;;;10.70;7.00;;;;;;;;;;4973277;28;20437;-74
2021/05/11 05:54:00;;;;;;;11.07;8.13;;;;;;;;;;4972803;28;20509;-76
2021/05/11 05:56:28;;;;;;;12.57;7.90;;;;;;;;;;4973149;28;20434;-75
2021/05/11 05:58:54;;;;;;;9.20;7.20;;;;;;;;;;4973019;28;20426;-74
2021/05/11 06:04:25;;;;;;;8.37;7.37;;;;;;;;;;4973003;28;20422;-74
2021/05/11 06:06:51;;;;;;;9.27;7.70;;;;;;;;;;4972946;28;20414;-75
2021/05/11 06:09:18;;;;;;;9.10;7.83;;;;;;;;;;4972646;28;20525;-75
2021/05/11 06:11:49;;;;;;;11.77;7.57;;;;;;;;;;4971788;28;20443;-73
2021/05/11 06:19:25;;;;;;;10.23;7.67;;;;;;;;;;4972154;28;20422;-74
2021/05/11 06:21:51;;;;;;;9.17;7.30;;;;;;;;;;4971894;28;20859;-73
2021/05/11 06:24:17;;;;;;;10.17;7.67;;;;;;;;;;4971938;28;20948;-75
2021/05/11 06:26:45;;;;;;;10.40;8.80;;;;;;;;;;4972147;28;20411;-75
2021/05/11 06:29:12;;;;;;;9.37;7.77;;;;;;;;;;4972092;28;20473;-75
2021/05/11 06:34:46;;;;;;;8.53;7.33;;;;;;;;;;4972235;28;20417;-75
2021/05/11 06:37:12;;;;;;;9.50;8.00;;;;;;;;;;4973467;28;20473;-74
2021/05/11 06:39:42;;;;;;;9.50;8.20;;;;;;;;;;4975676;28;20526;-74
2021/05/11 06:42:08;;;;;;;9.50;7.90;;;;;;;;;;4975686;28;20422;-74
2021/05/11 06:50:43;;;;;;;11.43;8.07;;;;;;;;;;4975601;28;20945;-75
2021/05/11 06:55:39;;;;;;;10.47;8.23;;;;;;;;;;4975892;28;20870;-74
2021/05/11 06:58:05;;;;;;;9.20;8.30;;;;;;;;;;4975662;28;20406;-73
2021/05/11 07:00:31;;;;;;;10.00;7.77;;;;;;;;;;4975419;28;20414;-74
2021/05/11 07:03:00;;;;;;;11.87;8.33;;;;;;;;;;4975174;28;20432;-74
2021/05/11 07:05:31;;;;;;;10.07;8.07;;;;;;;;;;4975183;28;20422;-74
2021/05/11 07:08:09;;;;;;;9.73;8.13;;;;;;;;;;4973930;28;20503;-74
2021/05/11 07:10:36;;;;;;;11.70;7.53;;;;;;;;;;4975383;28;20466;-75
2021/05/11 07:13:07;;;;;;;12.80;9.13;;;;;;;;;;4975191;28;20414;-77
2021/05/11 07:15:33;;;;;;;9.90;8.30;;;;;;;;;;4975335;28;20426;-74
2021/05/11 07:18:11;;;;;;;10.50;8.27;;;;;;;;;;4975418;28;20449;-75
2021/05/11 07:20:38;;;;;;;11.73;8.80;;;;;;;;;;4975187;28;20426;-75
2021/05/11 07:23:04;;;;;;;10.10;8.27;;;;;;;;;;4975269;28;20497;-75
2021/05/11 07:25:35;;;;;;;9.83;8.83;;;;;;;;;;4975300;28;20423;-75
2021/05/11 07:30:32;;;;;;;8.20;7.40;;;;;;;;;;4974937;28;20841;-75
2021/05/11 07:32:58;;;;;;;12.47;8.77;;;;;;;;;;4975191;28;20422;-74
2021/05/11 07:35:24;;;;;;;11.87;7.80;;;;;;;;;;4974955;28;20945;-74
2021/05/11 07:37:50;;;;;;;11.50;7.80;;;;;;;;;;4974765;28;20442;-75
2021/05/11 07:40:17;;;;;;;17.23;10.27;;;;;;;;;;4974826;28;20419;-74
2021/05/11 07:42:43;;;;;;;14.00;10.10;;;;;;;;;;4974967;28;20418;-75
2021/05/11 07:45:11;;;;;;;13.07;8.90;;;;;;;;;;4974801;28;20829;-75
2021/05/11 08:17:36;;;;;;;11.20;7.13;;;;;;;;;;4973198;28;20411;-75
2021/05/11 08:20:11;;;;;;;7.97;6.90;;;;;;;;;;4973591;28;20493;-74
2021/05/11 08:30:21;;;;;;;8.27;6.60;;;;;;;;;;4972963;28;20497;-75
2021/05/11 08:32:47;;;;;;;9.40;6.87;;;;;;;;;;4972962;28;20929;-74
2021/05/11 08:35:13;;;;;;;9.00;8.10;;;;;;;;;;4973200;28;20457;-74
2021/05/11 08:37:39;;;;;;;7.90;6.73;;;;;;;;;;4972877;28;20419;-76
2021/05/11 08:40:06;;;;;;;6.20;5.60;;;;;;;;;;4973519;28;20423;-73
2021/05/11 08:42:32;;;;;;;6.40;5.20;;;;;;;;;;4973358;28;20590;-74
2021/05/11 08:45:06;;;;;;;7.23;6.27;;;;;;;;;;4973231;28;20418;-76
2021/05/11 08:47:32;;;;;;;6.73;5.97;;;;;;;;;;4973136;28;20971;-76
2021/05/11 08:50:02;;;;;;;6.60;5.57;;;;;;;;;;4973119;28;20470;-73
2021/05/11 08:53:20;;;;;;;6.17;5.57;;;;;;;;;;4973070;28;20913;-74
2021/05/11 09:06:36;;;;;;;5.90;5.40;;;;;;;;;;4973155;28;20421;-73
2021/05/11 09:09:23;;;;;;;4.97;4.47;;;;;;;;;;4972212;28;20509;-72
2021/05/11 09:25:59;;;;;;;5.83;4.43;;;;;;;;;;4972056;28;20466;-74
2021/05/11 09:31:14;;;;;;;4.93;4.43;;;;;;;;;;4971882;28;20454;-75
2021/05/11 09:45:35;;;;;;;4.07;3.67;;;;;;;;;;4972901;28;20509;-75
2021/05/11 09:59:17;;;;;;;5.10;3.90;;;;;;;;;;4972750;28;20525;-76
2021/05/11 10:47:00;;;;;;;6.97;5.10;;;;;;;;;;4956350;29;20411;-73
2021/05/11 10:49:37;;;;;;;5.03;4.53;;;;;;;;;;4955810;29;20984;-72
2021/05/11 10:52:03;;;;;;;6.33;4.53;;;;;;;;;;4955633;29;20516;-74
2021/05/11 10:54:43;;;;;;;5.50;5.00;;;;;;;;;;4954472;29;20466;-73
2021/05/11 10:57:32;;;;;;;5.40;5.00;;;;;;;;;;4956829;29;20427;-74
2021/05/11 11:00:11;;;;;;;5.43;4.33;;;;;;;;;;4954616;29;20427;-75
2021/05/11 11:05:52;;;;;;;6.40;4.70;;;;;;;;;;4956112;29;20817;-74
2021/05/11 11:08:23;;;;;;;5.23;4.73;;;;;;;;;;4955743;28;20546;-74
2021/05/11 11:10:49;;;;;;;5.60;5.03;;;;;;;;;;4955889;29;20507;-74
2021/05/11 11:13:16;;;;;;;5.80;5.20;;;;;;;;;;4955483;29;20443;-74
2021/05/11 11:15:43;;;;;;;7.53;6.67;;;;;;;;;;4953205;29;20419;-74
2021/05/11 11:23:50;;;;;;;5.73;5.20;;;;;;;;;;4954396;28;20471;-74
2021/05/11 11:26:33;;;;;;;5.40;4.90;;;;;;;;;;4954345;29;20890;-76
2021/05/11 11:29:04;;;;;;;6.23;5.63;;;;;;;;;;4953553;29;20481;-74
2021/05/11 11:31:34;;;;;;;7.40;6.47;;;;;;;;;;4954246;29;20528;-74
2021/05/11 11:37:04;;;;;;;7.93;5.80;;;;;;;;;;4954203;29;20463;-74
2021/05/11 11:39:33;;;;;;;7.00;6.00;;;;;;;;;;4954039;29;20519;-77
2021/05/11 11:42:01;;;;;;;7.80;7.00;;;;;;;;;;4954492;29;20434;-74
2021/05/11 11:44:29;;;;;;;7.73;6.97;;;;;;;;;;4953995;29;20415;-73
2021/05/11 11:46:57;;;;;;;8.20;7.40;;;;;;;;;;4954120;29;20400;-73
2021/05/11 12:00:21;;;;;;;6.67;5.90;;;;;;;;;;4953525;29;20476;-74
2021/05/11 12:08:39;;;;;;;5.30;4.80;;;;;;;;;;4953262;29;20992;-75
2021/05/11 12:11:07;;;;;;;5.00;4.60;;;;;;;;;;4953634;29;20424;-74
2021/05/11 12:13:38;;;;;;;6.83;5.80;;;;;;;;;;4953373;29;20821;-75
2021/05/11 12:16:20;;;;;;;6.50;4.93;;;;;;;;;;4953708;29;20430;-76
2021/05/11 12:19:01;;;;;;;5.23;4.63;;;;;;;;;;4953336;29;20424;-75
2021/05/11 12:21:27;;;;;;;5.03;4.63;;;;;;;;;;4953277;29;20438;-74
2021/05/11 12:24:10;;;;;;;5.50;4.30;;;;;;;;;;4953027;29;20778;-74
2021/05/11 12:26:36;;;;;;;6.27;4.93;;;;;;;;;;4952535;29;20897;-74
2021/05/11 12:29:06;;;;;;;5.20;4.80;;;;;;;;;;4934677;29;20499;-74
2021/05/11 12:31:37;;;;;;;5.00;4.50;;;;;;;;;;4935363;29;20451;-75
2021/05/11 12:34:10;;;;;;;3.93;3.60;;;;;;;;;;4951956;28;20519;-76
2021/05/11 12:36:40;;;;;;;6.17;5.27;;;;;;;;;;4952153;29;20423;-77
2021/05/11 12:39:22;;;;;;;5.90;5.47;;;;;;;;;;4951689;29;20419;-76
2021/05/11 12:41:48;;;;;;;5.00;4.60;;;;;;;;;;4951856;29;20430;-76
2021/05/11 12:44:30;;;;;;;5.20;4.80;;;;;;;;;;4951945;29;20420;-75
2021/05/11 12:47:02;;;;;;;4.13;3.20;;;;;;;;;;4951708;29;20770;-74
2021/05/11 12:49:29;;;;;;;6.37;2.90;;;;;;;;;;4952253;29;20562;-75
2021/05/11 12:51:56;;;;;;;3.50;2.30;;;;;;;;;;4952327;29;20806;-75
2021/05/11 12:54:22;;;;;;;2.53;2.00;;;;;;;;;;4934685;29;20460;-74
2021/05/11 12:59:39;;;;;;;2.33;2.23;;;;;;;;;;4951487;29;20420;-74
2021/05/11 13:02:21;;;;;;;2.70;2.50;;;;;;;;;;4951804;29;20434;-75
2021/05/11 13:33:22;;;;;;;5.53;2.20;;;;;;;;;;4970843;28;20740;-74
2021/05/11 13:35:49;;;;;;;5.00;2.57;;;;;;;;;;4970676;28;20421;-74
2021/05/11 13:38:14;;;;;;;2.83;2.63;;;;;;;;;;4971413;28;20411;-74
2021/05/11 13:40:41;;;;;;;3.33;3.13;;;;;;;;;;4971996;28;20849;-72
2021/05/11 13:43:07;;;;;;;4.00;3.40;;;;;;;;;;4971944;28;20406;-73
2021/05/11 13:45:33;;;;;;;3.87;3.50;;;;;;;;;;4971823;28;20928;-74
2021/05/11 13:50:37;;;;;;;5.03;4.73;;;;;;;;;;4975938;28;20836;-73
2021/05/11 13:53:03;;;;;;;4.60;4.30;;;;;;;;;;4975564;28;20817;-74
2021/05/11 13:55:38;;;;;;;6.30;5.90;;;;;;;;;;4975693;28;21003;-74
2021/05/11 14:03:34;;;;;;;7.40;6.80;;;;;;;;;;4975699;28;20409;-74
2021/05/11 14:06:00;;;;;;;6.13;5.67;;;;;;;;;;4976181;28;20411;-74
2021/05/11 14:08:26;;;;;;;7.63;7.03;;;;;;;;;;4976342;28;20468;-74
2021/05/11 14:10:52;;;;;;;6.40;5.87;;;;;;;;;;4976513;28;20473;-74
2021/05/11 14:13:18;;;;;;;9.37;6.57;;;;;;;;;;4976397;28;20893;-73
2021/05/11 14:15:44;;;;;;;6.37;5.87;;;;;;;;;;4975988;28;20433;-76
2021/05/11 14:18:10;;;;;;;6.30;5.80;;;;;;;;;;4975716;28;20421;-76
2021/05/11 14:20:36;;;;;;;6.20;5.70;;;;;;;;;;4975623;28;20435;-76
2021/05/11 14:23:02;;;;;;;6.57;6.03;;;;;;;;;;4974882;28;20450;-75
2021/05/11 14:25:28;;;;;;;5.10;4.70;;;;;;;;;;4974669;28;20437;-75
2021/05/11 14:27:54;;;;;;;4.97;4.47;;;;;;;;;;4974712;28;20775;-75
2021/05/11 14:30:20;;;;;;;4.70;4.30;;;;;;;;;;4973810;28;20507;-72
2021/05/11 14:32:46;;;;;;;4.67;4.27;;;;;;;;;;4974184;28;20473;-74
2021/05/11 14:35:12;;;;;;;4.03;3.67;;;;;;;;;;4974023;28;20422;-75
2021/05/11 14:37:38;;;;;;;4.80;4.40;;;;;;;;;;4972667;28;20989;-75
2021/05/11 14:40:04;;;;;;;4.60;3.70;;;;;;;;;;4973811;28;20505;-74
2021/05/11 14:42:31;;;;;;;5.37;4.87;;;;;;;;;;4971592;28;20419;-76
2021/05/11 14:44:58;;;;;;;5.37;4.80;;;;;;;;;;4973171;28;20538;-79
2021/05/11 14:47:25;;;;;;;5.83;5.23;;;;;;;;;;4973657;28;20430;-76
2021/05/11 14:49:51;;;;;;;5.30;4.43;;;;;;;;;;4973582;28;20828;-75
2021/05/11 14:52:17;;;;;;;6.73;6.03;;;;;;;;;;4973406;28;20410;-74
2021/05/11 14:54:43;;;;;;;4.70;4.20;;;;;;;;;;4974001;28;20442;-75
2021/05/11 14:57:09;;;;;;;5.63;4.40;;;;;;;;;;4973634;28;20495;-75
2021/05/11 14:59:35;;;;;;;4.57;4.07;;;;;;;;;;4973161;28;20446;-74
2021/05/11 15:02:01;;;;;;;3.70;3.37;;;;;;;;;;4973581;28;20425;-75
2021/05/11 15:04:27;;;;;;;4.73;4.33;;;;;;;;;;4973697;28;20423;-74
2021/05/11 15:09:57;;;;;;;4.73;4.00;;;;;;;;;;4973520;28;20833;-74
2021/05/11 15:12:23;;;;;;;5.13;4.67;;;;;;;;;;4973699;28;20419;-74
2021/05/11 15:14:49;;;;;;;5.70;4.70;;;;;;;;;;4973998;28;20450;-74
2021/05/11 15:19:47;;;;;;;5.83;4.57;;;;;;;;;;4973902;28;20407;-73
2021/05/11 15:25:17;;;;;;;4.43;3.27;;;;;;;;;;4973053;28;20773;-73
2021/05/11 15:27:43;;;;;;;6.40;3.53;;;;;;;;;;4973633;28;20418;-73
2021/05/11 15:30:09;;;;;;;2.83;2.17;;;;;;;;;;4973156;28;20474;-71
2021/05/11 15:32:39;;;;;;;2.20;1.30;;;;;;;;;;4973537;28;20887;-72
2021/05/11 15:35:06;;;;;;;1.83;1.70;;;;;;;;;;4973605;28;20766;-72
2021/05/11 15:37:32;;;;;;;1.67;1.57;;;;;;;;;;4973316;28;20490;-73
2021/05/11 15:39:58;;;;;;;1.10;1.00;;;;;;;;;;4973195;28;20426;-74
2021/05/11 15:42:24;;;;;;;1.23;0.90;;;;;;;;;;4973236;28;20407;-75
2021/05/11 15:44:50;;;;;;;3.43;1.30;;;;;;;;;;4973680;28;20433;-75
2021/05/11 15:47:16;;;;;;;1.20;0.93;;;;;;;;;;4973438;28;20439;-75
2021/05/11 15:49:43;;;;;;;1.67;1.53;;;;;;;;;;4973269;28;20536;-74
2021/05/11 15:55:14;;;;;;;1.37;1.13;;;;;;;;;;4973084;28;20425;-74
2021/05/11 15:57:40;;;;;;;0.97;0.93;;;;;;;;;;4973466;28;20465;-72
2021/05/11 16:00:06;;;;;;;1.10;0.90;;;;;;;;;;4973335;28;20514;-73
2021/05/11 16:02:32;;;;;;;1.43;0.90;;;;;;;;;;4972094;28;20439;-72
2021/05/11 16:04:58;;;;;;;1.27;1.00;;;;;;;;;;4973465;28;20553;-73
2021/05/11 16:10:28;;;;;;;1.63;1.00;;;;;;;;;;4972850;28;20489;-72
2021/05/11 16:12:56;;;;;;;3.80;1.00;;;;;;;;;;4974542;28;20522;-75
2021/05/11 16:15:22;;;;;;;1.47;0.70;;;;;;;;;;4974525;28;20437;-74
2021/05/11 16:17:48;;;;;;;0.73;0.73;;;;;;;;;;4973023;28;20575;-73
2021/05/11 16:20:14;;;;;;;1.97;0.97;;;;;;;;;;4974698;28;20518;-74
2021/05/11 16:25:44;;;;;;;2.20;1.07;;;;;;;;;;4973850;28;20421;-74
2021/05/11 16:28:11;;;;;;;1.20;0.90;;;;;;;;;;4973669;28;20542;-73
2021/05/11 16:30:40;;;;;;;0.87;0.87;;;;;;;;;;4974114;28;20470;-75
2021/05/11 16:33:09;;;;;;;1.00;0.70;;;;;;;;;;4974118;28;20410;-73
2021/05/11 16:35:35;;;;;;;1.00;0.90;;;;;;;;;;4973848;28;20419;-73
2021/05/11 16:38:01;;;;;;;0.90;0.73;;;;;;;;;;4972784;28;20414;-73
2021/05/11 16:40:27;;;;;;;1.97;1.20;;;;;;;;;;4973396;28;20414;-73
2021/05/11 16:42:56;;;;;;;2.17;1.20;;;;;;;;;;4973160;28;20430;-76
2021/05/11 16:45:26;;;;;;;1.17;0.97;;;;;;;;;;4972992;28;20499;-76
2021/05/11 16:47:56;;;;;;;2.77;1.30;;;;;;;;;;4973320;28;20743;-73
2021/05/11 16:50:23;;;;;;;0.97;0.90;;;;;;;;;;4970838;28;20553;-75
2021/05/11 16:55:54;;;;;;;1.33;1.10;;;;;;;;;;4972040;28;20430;-78
2021/05/11 16:58:20;;;;;;;1.70;1.03;;;;;;;;;;4970898;28;20496;-76
2021/05/11 17:00:46;;;;;;;1.80;1.30;;;;;;;;;;4972977;28;20419;-86
2021/05/11 17:03:12;;;;;;;2.03;1.83;;;;;;;;;;4972779;28;20453;-73
2021/05/11 17:05:39;;;;;;;2.73;1.23;;;;;;;;;;4972794;28;20419;-74
2021/05/11 17:08:07;;;;;;;1.10;1.00;;;;;;;;;;4958330;28;20491;-76
2021/05/11 17:10:34;;;;;;;2.70;1.40;;;;;;;;;;4953334;29;20514;-75
2021/05/11 17:13:01;;;;;;;2.30;1.87;;;;;;;;;;4953197;29;20518;-77
2021/05/11 17:15:28;;;;;;;1.43;0.90;;;;;;;;;;4953289;29;20415;-74
2021/05/11 17:17:54;;;;;;;2.53;1.40;;;;;;;;;;4953379;29;20422;-75
2021/05/11 17:20:21;;;;;;;4.47;1.80;;;;;;;;;;4953389;28;20577;-75
2021/05/11 17:25:51;;;;;;;1.30;1.20;;;;;;;;;;4953480;29;20459;-77
2021/05/11 17:28:19;;;;;;;1.73;1.20;;;;;;;;;;4953649;29;20515;-78
2021/05/11 17:30:47;;;;;;;4.67;1.50;;;;;;;;;;4952766;29;20475;-74
2021/05/11 17:33:13;;;;;;;1.50;1.37;;;;;;;;;;4953454;29;20471;-74
2021/05/11 17:35:39;;;;;;;1.53;1.20;;;;;;;;;;4953345;29;20467;-73
2021/05/11 17:41:10;;;;;;;1.40;1.30;;;;;;;;;;4953275;29;20444;-75
2021/05/11 17:43:36;;;;;;;1.50;1.40;;;;;;;;;;4953067;29;20423;-74
2021/05/11 17:46:02;;;;;;;2.43;1.70;;;;;;;;;;4953457;29;20414;-75
2021/05/11 17:48:35;;;;;;;2.37;1.50;;;;;;;;;;4953441;29;20899;-74
2021/05/11 17:51:02;;;;;;;1.53;1.43;;;;;;;;;;4953234;29;21064;-75
2021/05/11 17:56:32;;;;;;;1.40;1.30;;;;;;;;;;4954930;29;20763;-73
2021/05/11 17:58:58;;;;;;;1.77;1.67;;;;;;;;;;4956219;29;20455;-75
2021/05/11 18:01:24;;;;;;;2.40;2.07;;;;;;;;;;4953213;29;20408;-75
2021/05/11 18:03:52;;;;;;;2.73;1.50;;;;;;;;;;4953534;29;20410;-76
2021/05/11 18:06:18;;;;;;;2.03;1.83;;;;;;;;;;4953559;29;20412;-78
2021/05/11 18:11:50;;;;;;;1.97;1.83;;;;;;;;;;4953273;29;20526;-74
2021/05/11 18:14:16;;;;;;;2.30;2.10;;;;;;;;;;4951423;29;20748;-74
2021/05/11 18:16:42;;;;;;;3.33;1.93;;;;;;;;;;4953169;29;20427;-74
2021/05/11 18:19:08;;;;;;;2.17;1.50;;;;;;;;;;4953485;29;20408;-73
2021/05/11 18:21:34;;;;;;;2.00;1.20;;;;;;;;;;4952691;29;20466;-74
2021/05/11 18:27:04;;;;;;;1.37;1.27;;;;;;;;;;4953050;29;20410;-77
2021/05/11 18:29:31;;;;;;;3.00;1.70;;;;;;;;;;4952556;29;20459;-73
2021/05/11 18:31:57;;;;;;;2.10;1.67;;;;;;;;;;4951857;28;20954;-74
2021/05/11 18:34:23;;;;;;;2.10;1.47;;;;;;;;;;4954840;29;20462;-75
2021/05/11 18:39:24;;;;;;;2.10;2.00;;;;;;;;;;4955550;29;20423;-73
2021/05/11 18:41:54;;;;;;;4.00;2.03;;;;;;;;;;4955582;29;20425;-74
2021/05/11 18:44:20;;;;;;;2.17;2.03;;;;;;;;;;4954650;29;20457;-75
2021/05/11 18:46:47;;;;;;;2.13;1.93;;;;;;;;;;4955161;29;20420;-76
2021/05/11 18:49:14;;;;;;;2.47;2.27;;;;;;;;;;4953856;29;20546;-74
2021/05/11 18:51:40;;;;;;;1.83;1.50;;;;;;;;;;4954302;29;20447;-75
2021/05/11 18:57:10;;;;;;;2.00;1.80;;;;;;;;;;4955167;29;20462;-75
2021/05/11 18:59:36;;;;;;;0.87;0.80;;;;;;;;;;4954770;29;20427;-74
2021/05/11 19:02:02;;;;;;;1.50;1.40;;;;;;;;;;4955101;29;20922;-74
2021/05/11 19:04:28;;;;;;;4.60;1.30;;;;;;;;;;4954932;29;20428;-74
2021/05/11 19:06:54;;;;;;;1.70;1.60;;;;;;;;;;4955070;28;20495;-77
2021/05/11 19:12:23;;;;;;;1.10;0.83;;;;;;;;;;4956250;29;20925;-74
2021/05/11 19:14:51;;;;;;;1.50;1.00;;;;;;;;;;4956107;29;20419;-74
2021/05/11 19:17:17;;;;;;;2.00;1.30;;;;;;;;;;4955357;29;20408;-73
2021/05/11 19:19:43;;;;;;;2.90;1.50;;;;;;;;;;4955854;29;20423;-73
2021/05/11 19:22:09;;;;;;;1.07;1.03;;;;;;;;;;4955758;29;20774;-74
2021/05/11 19:27:39;;;;;;;1.70;1.03;;;;;;;;;;4955820;29;20493;-74
2021/05/11 19:30:06;;;;;;;1.00;0.90;;;;;;;;;;4955536;29;20830;-74
2021/05/11 19:32:33;;;;;;;1.13;1.00;;;;;;;;;;4955762;29;20815;-74
2021/05/11 19:34:59;;;;;;;1.43;1.03;;;;;;;;;;4955249;29;20894;-74
2021/05/11 19:37:28;;;;;;;1.20;1.10;;;;;;;;;;4955951;29;20452;-74
2021/05/11 19:39:54;;;;;;;0.90;0.90;;;;;;;;;;4955772;29;20475;-74
2021/05/11 19:42:20;;;;;;;0.97;0.90;;;;;;;;;;4955391;29;20411;-74
2021/05/11 19:44:46;;;;;;;1.10;1.00;;;;;;;;;;4954154;28;20424;-73
2021/05/11 19:47:12;;;;;;;1.00;0.90;;;;;;;;;;4954442;29;20905;-74
2021/05/11 19:49:38;;;;;;;1.90;1.17;;;;;;;;;;4953793;29;20466;-73
2021/05/11 19:52:05;;;;;;;1.20;1.10;;;;;;;;;;4954118;29;20502;-75
2021/05/11 19:57:35;;;;;;;1.13;1.03;;;;;;;;;;4954275;29;20997;-74
2021/05/11 20:00:01;;;;;;;0.70;0.70;;;;;;;;;;4953761;29;20506;-74
2021/05/11 20:02:27;;;;;;;0.63;0.63;;;;;;;;;;4954814;29;20431;-72
2021/05/11 20:04:53;;;;;;;1.07;0.90;;;;;;;;;;4956402;29;20419;-75
2021/05/11 20:07:19;;;;;;;2.10;0.80;;;;;;;;;;4954047;29;20481;-74
2021/05/11 20:12:48;;;;;;;3.17;0.87;;;;;;;;;;4953933;29;20458;-75
2021/05/11 20:15:15;;;;;;;1.20;1.10;;;;;;;;;;4953749;29;20411;-75
2021/05/11 20:17:42;;;;;;;1.33;1.20;;;;;;;;;;4953665;29;20969;-75
2021/05/11 20:20:08;;;;;;;2.10;2.00;;;;;;;;;;4953669;29;20833;-74
2021/05/11 20:22:34;;;;;;;1.40;1.00;;;;;;;;;;4953784;29;20502;-74
2021/05/11 20:28:04;;;;;;;1.30;1.20;;;;;;;;;;4953437;29;20433;-74
2021/05/11 20:30:30;;;;;;;1.37;1.00;;;;;;;;;;4953174;29;20490;-73
2021/05/11 20:32:56;;;;;;;1.20;1.10;;;;;;;;;;4953440;29;20422;-74
2021/05/11 20:35:25;;;;;;;2.20;0.70;;;;;;;;;;4953540;29;20415;-74
2021/05/11 20:37:56;;;;;;;1.10;1.00;;;;;;;;;;4953238;29;20419;-73
2021/05/11 20:43:46;;;;;;;1.30;1.20;;;;;;;;;;4953411;29;20793;-75
2021/05/11 20:46:12;;;;;;;1.40;1.30;;;;;;;;;;4953366;29;20506;-75
2021/05/11 20:48:38;;;;;;;1.80;1.70;;;;;;;;;;4953128;29;21041;-75
2021/05/11 20:51:04;;;;;;;1.60;1.50;;;;;;;;;;4952818;29;20474;-74
2021/05/11 20:53:30;;;;;;;3.30;1.40;;;;;;;;;;4953044;29;20415;-74
2021/05/11 20:55:56;;;;;;;1.50;1.40;;;;;;;;;;4952643;28;20423;-73
2021/05/11 20:58:22;;;;;;;1.30;1.20;;;;;;;;;;4952598;29;20408;-75
2021/05/11 21:00:48;;;;;;;1.43;1.30;;;;;;;;;;4952757;29;20486;-74
2021/05/11 21:03:14;;;;;;;1.47;1.20;;;;;;;;;;4953207;29;20886;-74
2021/05/11 21:05:40;;;;;;;1.60;1.50;;;;;;;;;;4953102;29;20419;-75
2021/05/11 21:08:06;;;;;;;1.30;1.20;;;;;;;;;;4952757;28;20825;-74
2021/05/11 21:13:36;;;;;;;1.43;1.30;;;;;;;;;;4953064;29;20433;-74
2021/05/11 21:16:02;;;;;;;1.33;1.23;;;;;;;;;;4953078;29;20585;-74